sensor_id;sensor_type;location;lat;lon;timestamp;temperature;humidity
34147;DHT22;20423;49.448;9.056;2022-09-09T00:09:33;13.10;99.90
34147;DHT22;20423;49.448;9.056;2022-09-09T00:12:22;13.10;99.90
34147;DHT22;20423;49.448;9.056;2022-09-09T00:15:05;13.10;99.90
34147;DHT22;20423;49.448;9.056;2022-09-09T00:17:35;13.10;99.90
34147;DHT22;20423;49.448;9.056;2022-09-09T00:22:31;13.20;99.90
34147;DHT22;20423;49.448;9.056;2022-09-09T00:25:12;13.20;99.90
34147;DHT22;20423;49.448;9.056;2022-09-09T00:27:45;13.20;99.90
34147;DHT22;20423;49.448;9.056;2022-09-09T00:30:20;13.20;99.90
34147;DHT22;20423;49.448;9.056;2022-09-09T00:33:03;13.20;99.90
34147;DHT22;20423;49.448;9.056;2022-09-09T00:35:45;13.10;99.90
34147;DHT22;20423;49.448;9.056;2022-09-09T00:41:03;13.20;99.90
34147;DHT22;20423;49.448;9.056;2022-09-09T00:43:32;13.20;99.90
34147;DHT22;20423;49.448;9.056;2022-09-09T00:51:41;13.30;99.90
34147;DHT22;20423;49.448;9.056;2022-09-09T00:54:32;13.30;99.90
34147;DHT22;20423;49.448;9.056;2022-09-09T00:59:47;13.30;99.90
34147;DHT22;20423;49.448;9.056;2022-09-09T01:02:28;13.30;99.90
34147;DHT22;20423;49.448;9.056;2022-09-09T01:05:05;13.20;99.90
34147;DHT22;20423;49.448;9.056;2022-09-09T01:07:32;13.20;99.90
34147;DHT22;20423;49.448;9.056;2022-09-09T01:10:00;13.30;99.90
34147;DHT22;20423;49.448;9.056;2022-09-09T01:12:41;13.30;99.90
34147;DHT22;20423;49.448;9.056;2022-09-09T01:15:28;13.30;99.90
34147;DHT22;20423;49.448;9.056;2022-09-09T01:18:13;13.30;99.90
34147;DHT22;20423;49.448;9.056;2022-09-09T01:26:37;13.50;99.90
34147;DHT22;20423;49.448;9.056;2022-09-09T01:29:13;13.50;99.90
34147;DHT22;20423;49.448;9.056;2022-09-09T01:31:55;13.40;99.90
34147;DHT22;20423;49.448;9.056;2022-09-09T01:34:23;13.30;99.90
34147;DHT22;20423;49.448;9.056;2022-09-09T01:40:37;13.20;99.90
34147;DHT22;20423;49.448;9.056;2022-09-09T01:43:04;13.20;99.90
34147;DHT22;20423;49.448;9.056;2022-09-09T01:46:04;13.20;99.90
34147;DHT22;20423;49.448;9.056;2022-09-09T01:48:33;13.30;99.90
34147;DHT22;20423;49.448;9.056;2022-09-09T01:51:02;13.30;99.90
34147;DHT22;20423;49.448;9.056;2022-09-09T01:53:29;13.40;99.90
34147;DHT22;20423;49.448;9.056;2022-09-09T02:04:40;13.50;99.90
34147;DHT22;20423;49.448;9.056;2022-09-09T02:07:39;13.40;99.90
34147;DHT22;20423;49.448;9.056;2022-09-09T02:10:18;13.40;99.90
34147;DHT22;20423;49.448;9.056;2022-09-09T02:13:07;13.40;99.90
34147;DHT22;20423;49.448;9.056;2022-09-09T02:15:37;13.40;99.90
34147;DHT22;20423;49.448;9.056;2022-09-09T02:18:06;13.40;99.90
34147;DHT22;20423;49.448;9.056;2022-09-09T02:20:37;13.40;99.90
34147;DHT22;20423;49.448;9.056;2022-09-09T02:23:04;13.40;99.90
34147;DHT22;20423;49.448;9.056;2022-09-09T02:25:30;13.40;99.90
34147;DHT22;20423;49.448;9.056;2022-09-09T02:28:13;13.40;99.90
34147;DHT22;20423;49.448;9.056;2022-09-09T02:30:41;13.30;99.90
34147;DHT22;20423;49.448;9.056;2022-09-09T02:33:33;13.30;99.90
34147;DHT22;20423;49.448;9.056;2022-09-09T02:36:00;13.30;99.90
34147;DHT22;20423;49.448;9.056;2022-09-09T02:38:33;13.30;99.90
34147;DHT22;20423;49.448;9.056;2022-09-09T02:41:06;13.30;99.90
34147;DHT22;20423;49.448;9.056;2022-09-09T02:43:50;13.40;99.90
34147;DHT22;20423;49.448;9.056;2022-09-09T02:49:06;13.60;99.90
34147;DHT22;20423;49.448;9.056;2022-09-09T02:51:52;13.60;99.90
34147;DHT22;20423;49.448;9.056;2022-09-09T02:54:27;13.70;99.90
34147;DHT22;20423;49.448;9.056;2022-09-09T02:57:10;13.70;99.90
34147;DHT22;20423;49.448;9.056;2022-09-09T02:59:39;13.70;99.90
34147;DHT22;20423;49.448;9.056;2022-09-09T03:02:05;13.70;99.90
34147;DHT22;20423;49.448;9.056;2022-09-09T03:04:32;13.60;99.90
34147;DHT22;20423;49.448;9.056;2022-09-09T03:06:58;13.60;99.90
34147;DHT22;20423;49.448;9.056;2022-09-09T03:09:24;13.60;99.90
34147;DHT22;20423;49.448;9.056;2022-09-09T03:11:52;13.50;99.90
34147;DHT22;20423;49.448;9.056;2022-09-09T03:14:19;13.50;99.90
34147;DHT22;20423;49.448;9.056;2022-09-09T03:16:47;13.50;99.90
34147;DHT22;20423;49.448;9.056;2022-09-09T03:19:13;13.50;99.90
34147;DHT22;20423;49.448;9.056;2022-09-09T03:21:40;13.40;99.90
34147;DHT22;20423;49.448;9.056;2022-09-09T03:24:06;13.40;99.90
34147;DHT22;20423;49.448;9.056;2022-09-09T03:26:33;13.40;99.90
34147;DHT22;20423;49.448;9.056;2022-09-09T03:28:59;13.30;99.90
34147;DHT22;20423;49.448;9.056;2022-09-09T03:31:26;13.20;99.90
34147;DHT22;20423;49.448;9.056;2022-09-09T03:33:57;13.20;99.90
34147;DHT22;20423;49.448;9.056;2022-09-09T03:36:25;13.10;99.90
34147;DHT22;20423;49.448;9.056;2022-09-09T03:38:52;13.00;99.90
34147;DHT22;20423;49.448;9.056;2022-09-09T03:41:24;13.00;99.90
34147;DHT22;20423;49.448;9.056;2022-09-09T03:43:53;13.00;99.90
34147;DHT22;20423;49.448;9.056;2022-09-09T03:46:24;13.00;99.90
34147;DHT22;20423;49.448;9.056;2022-09-09T03:48:51;13.10;99.90
34147;DHT22;20423;49.448;9.056;2022-09-09T03:51:18;13.00;99.90
34147;DHT22;20423;49.448;9.056;2022-09-09T03:53:44;13.10;99.90
34147;DHT22;20423;49.448;9.056;2022-09-09T03:56:11;13.10;99.90
34147;DHT22;20423;49.448;9.056;2022-09-09T03:58:37;13.10;99.90
34147;DHT22;20423;49.448;9.056;2022-09-09T04:01:08;13.00;99.90
34147;DHT22;20423;49.448;9.056;2022-09-09T04:03:35;13.00;99.90
34147;DHT22;20423;49.448;9.056;2022-09-09T04:06:03;12.90;99.90
34147;DHT22;20423;49.448;9.056;2022-09-09T04:08:30;12.90;99.90
34147;DHT22;20423;49.448;9.056;2022-09-09T04:11:00;12.90;99.90
34147;DHT22;20423;49.448;9.056;2022-09-09T04:13:28;12.90;99.90
34147;DHT22;20423;49.448;9.056;2022-09-09T04:15:57;13.00;99.90
34147;DHT22;20423;49.448;9.056;2022-09-09T04:18:24;13.00;99.90
34147;DHT22;20423;49.448;9.056;2022-09-09T04:20:52;13.00;99.90
34147;DHT22;20423;49.448;9.056;2022-09-09T04:23:21;13.10;99.90
34147;DHT22;20423;49.448;9.056;2022-09-09T04:25:48;13.10;99.90
34147;DHT22;20423;49.448;9.056;2022-09-09T04:28:16;13.10;99.90
34147;DHT22;20423;49.448;9.056;2022-09-09T04:30:44;13.10;99.90
34147;DHT22;20423;49.448;9.056;2022-09-09T04:33:10;13.20;99.90
34147;DHT22;20423;49.448;9.056;2022-09-09T04:35:38;13.20;99.90
34147;DHT22;20423;49.448;9.056;2022-09-09T04:38:05;13.30;99.90
34147;DHT22;20423;49.448;9.056;2022-09-09T04:40:33;13.30;99.90
34147;DHT22;20423;49.448;9.056;2022-09-09T04:43:02;13.30;99.90
34147;DHT22;20423;49.448;9.056;2022-09-09T04:45:29;13.30;99.90
34147;DHT22;20423;49.448;9.056;2022-09-09T04:47:56;13.20;99.90
34147;DHT22;20423;49.448;9.056;2022-09-09T04:54:10;13.00;99.90
34147;DHT22;20423;49.448;9.056;2022-09-09T04:56:42;12.90;99.90
34147;DHT22;20423;49.448;9.056;2022-09-09T04:59:10;12.90;99.90
34147;DHT22;20423;49.448;9.056;2022-09-09T05:01:42;12.80;99.90
34147;DHT22;20423;49.448;9.056;2022-09-09T05:04:08;12.80;99.90
34147;DHT22;20423;49.448;9.056;2022-09-09T05:06:34;12.80;99.90
34147;DHT22;20423;49.448;9.056;2022-09-09T05:09:01;12.80;99.90
34147;DHT22;20423;49.448;9.056;2022-09-09T05:11:31;12.90;99.90
34147;DHT22;20423;49.448;9.056;2022-09-09T05:14:06;12.80;99.90
34147;DHT22;20423;49.448;9.056;2022-09-09T05:16:31;12.90;99.90
34147;DHT22;20423;49.448;9.056;2022-09-09T05:18:57;12.90;99.90
34147;DHT22;20423;49.448;9.056;2022-09-09T05:21:26;12.90;99.90
34147;DHT22;20423;49.448;9.056;2022-09-09T05:23:54;12.90;99.90
34147;DHT22;20423;49.448;9.056;2022-09-09T05:26:22;13.00;99.90
34147;DHT22;20423;49.448;9.056;2022-09-09T05:28:50;13.10;99.90
34147;DHT22;20423;49.448;9.056;2022-09-09T05:31:17;13.20;99.90
34147;DHT22;20423;49.448;9.056;2022-09-09T05:33:45;13.20;99.90
34147;DHT22;20423;49.448;9.056;2022-09-09T05:36:14;13.20;99.90
34147;DHT22;20423;49.448;9.056;2022-09-09T05:38:42;13.20;99.90
34147;DHT22;20423;49.448;9.056;2022-09-09T05:41:09;13.20;99.90
34147;DHT22;20423;49.448;9.056;2022-09-09T05:43:36;13.20;99.90
34147;DHT22;20423;49.448;9.056;2022-09-09T05:46:06;13.10;99.90
34147;DHT22;20423;49.448;9.056;2022-09-09T05:48:34;13.20;99.90
34147;DHT22;20423;49.448;9.056;2022-09-09T05:51:01;13.40;99.90
34147;DHT22;20423;49.448;9.056;2022-09-09T05:53:29;13.40;99.90
34147;DHT22;20423;49.448;9.056;2022-09-09T05:56:26;13.50;99.90
34147;DHT22;20423;49.448;9.056;2022-09-09T05:58:53;13.60;99.90
34147;DHT22;20423;49.448;9.056;2022-09-09T06:01:26;13.60;99.90
34147;DHT22;20423;49.448;9.056;2022-09-09T06:03:52;13.70;99.90
34147;DHT22;20423;49.448;9.056;2022-09-09T06:06:24;13.70;99.90
34147;DHT22;20423;49.448;9.056;2022-09-09T06:08:54;13.80;99.90
34147;DHT22;20423;49.448;9.056;2022-09-09T06:14:46;14.10;99.90
34147;DHT22;20423;49.448;9.056;2022-09-09T06:17:14;14.20;99.90
34147;DHT22;20423;49.448;9.056;2022-09-09T06:19:39;14.50;99.90
34147;DHT22;20423;49.448;9.056;2022-09-09T06:22:06;14.80;99.90
34147;DHT22;20423;49.448;9.056;2022-09-09T06:24:34;14.90;99.90
34147;DHT22;20423;49.448;9.056;2022-09-09T06:27:02;15.10;99.90
34147;DHT22;20423;49.448;9.056;2022-09-09T06:29:32;15.30;99.90
34147;DHT22;20423;49.448;9.056;2022-09-09T06:31:57;15.40;99.90
34147;DHT22;20423;49.448;9.056;2022-09-09T06:34:26;15.50;99.90
34147;DHT22;20423;49.448;9.056;2022-09-09T06:36:54;15.80;99.90
34147;DHT22;20423;49.448;9.056;2022-09-09T06:39:21;15.70;99.90
34147;DHT22;20423;49.448;9.056;2022-09-09T06:41:47;15.60;99.90
34147;DHT22;20423;49.448;9.056;2022-09-09T06:44:45;15.50;99.90
34147;DHT22;20423;49.448;9.056;2022-09-09T06:47:17;15.50;99.90
34147;DHT22;20423;49.448;9.056;2022-09-09T06:49:43;15.40;99.90
34147;DHT22;20423;49.448;9.056;2022-09-09T06:52:10;15.50;99.90
34147;DHT22;20423;49.448;9.056;2022-09-09T06:54:36;15.50;99.90
34147;DHT22;20423;49.448;9.056;2022-09-09T06:57:03;15.70;99.90
34147;DHT22;20423;49.448;9.056;2022-09-09T06:59:29;15.80;99.90
34147;DHT22;20423;49.448;9.056;2022-09-09T07:01:58;16.10;99.90
34147;DHT22;20423;49.448;9.056;2022-09-09T07:04:24;16.40;99.90
34147;DHT22;20423;49.448;9.056;2022-09-09T07:06:51;16.50;99.90
34147;DHT22;20423;49.448;9.056;2022-09-09T07:09:21;16.40;99.90
34147;DHT22;20423;49.448;9.056;2022-09-09T07:11:51;16.40;99.90
34147;DHT22;20423;49.448;9.056;2022-09-09T07:14:19;16.50;99.90
34147;DHT22;20423;49.448;9.056;2022-09-09T07:16:48;16.40;99.90
34147;DHT22;20423;49.448;9.056;2022-09-09T07:19:16;16.30;99.90
34147;DHT22;20423;49.448;9.056;2022-09-09T07:21:43;16.40;99.90
34147;DHT22;20423;49.448;9.056;2022-09-09T07:24:11;16.60;99.90
34147;DHT22;20423;49.448;9.056;2022-09-09T07:26:40;16.80;99.90
34147;DHT22;20423;49.448;9.056;2022-09-09T07:29:07;16.80;99.90
34147;DHT22;20423;49.448;9.056;2022-09-09T07:31:35;16.70;99.90
34147;DHT22;20423;49.448;9.056;2022-09-09T07:34:04;16.40;99.90
34147;DHT22;20423;49.448;9.056;2022-09-09T07:36:34;16.20;99.90
34147;DHT22;20423;49.448;9.056;2022-09-09T07:39:07;16.10;99.90
34147;DHT22;20423;49.448;9.056;2022-09-09T07:41:36;16.00;99.90
34147;DHT22;20423;49.448;9.056;2022-09-09T07:44:12;15.90;99.90
34147;DHT22;20423;49.448;9.056;2022-09-09T07:46:40;16.10;99.90
34147;DHT22;20423;49.448;9.056;2022-09-09T07:49:09;16.30;99.90
34147;DHT22;20423;49.448;9.056;2022-09-09T07:51:38;16.30;99.90
34147;DHT22;20423;49.448;9.056;2022-09-09T07:54:10;16.50;99.90
34147;DHT22;20423;49.448;9.056;2022-09-09T07:56:39;16.80;99.90
34147;DHT22;20423;49.448;9.056;2022-09-09T07:59:06;16.80;99.90
34147;DHT22;20423;49.448;9.056;2022-09-09T08:01:36;16.70;99.90
34147;DHT22;20423;49.448;9.056;2022-09-09T08:04:10;16.60;99.90
34147;DHT22;20423;49.448;9.056;2022-09-09T08:06:46;16.50;99.90
34147;DHT22;20423;49.448;9.056;2022-09-09T08:09:14;16.50;99.90
34147;DHT22;20423;49.448;9.056;2022-09-09T08:11:41;16.60;99.90
34147;DHT22;20423;49.448;9.056;2022-09-09T08:14:08;16.60;99.90
34147;DHT22;20423;49.448;9.056;2022-09-09T08:16:40;16.50;99.90
34147;DHT22;20423;49.448;9.056;2022-09-09T08:19:07;16.50;99.90
34147;DHT22;20423;49.448;9.056;2022-09-09T08:22:02;16.50;99.90
34147;DHT22;20423;49.448;9.056;2022-09-09T08:24:47;16.80;99.90
34147;DHT22;20423;49.448;9.056;2022-09-09T08:27:13;16.90;99.90
34147;DHT22;20423;49.448;9.056;2022-09-09T08:29:39;16.90;99.90
34147;DHT22;20423;49.448;9.056;2022-09-09T08:32:05;17.00;99.90
34147;DHT22;20423;49.448;9.056;2022-09-09T08:34:32;16.90;99.90
34147;DHT22;20423;49.448;9.056;2022-09-09T08:37:02;17.00;99.90
34147;DHT22;20423;49.448;9.056;2022-09-09T08:40:09;17.00;99.90
34147;DHT22;20423;49.448;9.056;2022-09-09T08:42:47;17.30;99.90
34147;DHT22;20423;49.448;9.056;2022-09-09T08:45:33;17.70;99.90
34147;DHT22;20423;49.448;9.056;2022-09-09T08:48:28;18.00;99.90
34147;DHT22;20423;49.448;9.056;2022-09-09T08:50:56;19.50;99.90
34147;DHT22;20423;49.448;9.056;2022-09-09T08:53:28;20.10;99.90
34147;DHT22;20423;49.448;9.056;2022-09-09T08:59:03;20.80;99.90
34147;DHT22;20423;49.448;9.056;2022-09-09T09:10:39;18.50;99.90
34147;DHT22;20423;49.448;9.056;2022-09-09T09:15:48;19.80;99.90
34147;DHT22;20423;49.448;9.056;2022-09-09T09:18:17;19.10;99.90
34147;DHT22;20423;49.448;9.056;2022-09-09T09:24:59;16.40;99.90
34147;DHT22;20423;49.448;9.056;2022-09-09T09:27:37;15.40;99.90
34147;DHT22;20423;49.448;9.056;2022-09-09T09:30:20;15.20;99.90
34147;DHT22;20423;49.448;9.056;2022-09-09T09:33:00;15.10;99.90
34147;DHT22;20423;49.448;9.056;2022-09-09T09:35:27;15.30;99.90
34147;DHT22;20423;49.448;9.056;2022-09-09T09:37:53;15.90;99.90
34147;DHT22;20423;49.448;9.056;2022-09-09T09:40:21;16.40;99.90
34147;DHT22;20423;49.448;9.056;2022-09-09T09:48:00;17.30;99.90
34147;DHT22;20423;49.448;9.056;2022-09-09T09:50:29;17.50;99.90
34147;DHT22;20423;49.448;9.056;2022-09-09T09:53:00;17.80;99.90
34147;DHT22;20423;49.448;9.056;2022-09-09T09:55:30;18.00;99.90
34147;DHT22;20423;49.448;9.056;2022-09-09T09:58:05;17.90;99.90
34147;DHT22;20423;49.448;9.056;2022-09-09T10:00:31;17.70;99.90
34147;DHT22;20423;49.448;9.056;2022-09-09T10:03:18;18.00;99.90
34147;DHT22;20423;49.448;9.056;2022-09-09T10:05:46;18.40;99.90
34147;DHT22;20423;49.448;9.056;2022-09-09T10:08:16;18.70;99.90
34147;DHT22;20423;49.448;9.056;2022-09-09T10:19:04;19.70;99.90
34147;DHT22;20423;49.448;9.056;2022-09-09T10:21:54;19.60;99.90
34147;DHT22;20423;49.448;9.056;2022-09-09T10:32:48;19.30;99.90
34147;DHT22;20423;49.448;9.056;2022-09-09T10:38:15;19.10;99.90
34147;DHT22;20423;49.448;9.056;2022-09-09T10:55:18;20.10;99.90
34147;DHT22;20423;49.448;9.056;2022-09-09T10:57:36;20.60;99.90
34147;DHT22;20423;49.448;9.056;2022-09-09T11:02:41;21.00;99.90
34147;DHT22;20423;49.448;9.056;2022-09-09T11:07:57;20.50;99.90
34147;DHT22;20423;49.448;9.056;2022-09-09T11:13:11;19.90;99.90
34147;DHT22;20423;49.448;9.056;2022-09-09T11:15:51;20.00;99.90
34147;DHT22;20423;49.448;9.056;2022-09-09T11:18:23;20.50;99.90
34147;DHT22;20423;49.448;9.056;2022-09-09T11:20:51;21.00;99.90
34147;DHT22;20423;49.448;9.056;2022-09-09T11:23:42;21.00;99.90
34147;DHT22;20423;49.448;9.056;2022-09-09T11:40:24;21.20;99.90
34147;DHT22;20423;49.448;9.056;2022-09-09T11:45:28;21.50;99.90
34147;DHT22;20423;49.448;9.056;2022-09-09T11:48:02;21.70;99.90
34147;DHT22;20423;49.448;9.056;2022-09-09T11:50:35;21.90;99.90
34147;DHT22;20423;49.448;9.056;2022-09-09T11:55:40;21.10;99.90
34147;DHT22;20423;49.448;9.056;2022-09-09T11:58:16;20.80;99.90
34147;DHT22;20423;49.448;9.056;2022-09-09T12:00:47;20.00;99.90
34147;DHT22;20423;49.448;9.056;2022-09-09T12:03:48;19.30;99.90
34147;DHT22;20423;49.448;9.056;2022-09-09T12:06:28;19.90;99.90
34147;DHT22;20423;49.448;9.056;2022-09-09T12:09:09;20.50;99.90
34147;DHT22;20423;49.448;9.056;2022-09-09T12:11:39;20.10;99.90
34147;DHT22;20423;49.448;9.056;2022-09-09T12:14:17;19.70;99.90
34147;DHT22;20423;49.448;9.056;2022-09-09T12:16:43;19.30;99.90
34147;DHT22;20423;49.448;9.056;2022-09-09T12:19:19;18.80;99.90
34147;DHT22;20423;49.448;9.056;2022-09-09T12:22:05;18.70;99.90
34147;DHT22;20423;49.448;9.056;2022-09-09T12:24:46;18.40;99.90
34147;DHT22;20423;49.448;9.056;2022-09-09T12:29:55;18.40;99.90
34147;DHT22;20423;49.448;9.056;2022-09-09T12:32:26;18.50;99.90
34147;DHT22;20423;49.448;9.056;2022-09-09T12:38:36;18.90;99.90
34147;DHT22;20423;49.448;9.056;2022-09-09T12:41:02;19.30;99.90
34147;DHT22;20423;49.448;9.056;2022-09-09T12:43:28;19.20;99.90
34147;DHT22;20423;49.448;9.056;2022-09-09T12:45:58;19.10;99.90
34147;DHT22;20423;49.448;9.056;2022-09-09T12:48:36;19.20;99.90
34147;DHT22;20423;49.448;9.056;2022-09-09T12:51:04;19.50;99.90
34147;DHT22;20423;49.448;9.056;2022-09-09T12:53:35;20.40;99.90
34147;DHT22;20423;49.448;9.056;2022-09-09T12:56:04;20.70;99.90
34147;DHT22;20423;49.448;9.056;2022-09-09T12:58:31;21.00;99.90
34147;DHT22;20423;49.448;9.056;2022-09-09T13:00:59;20.90;99.90
34147;DHT22;20423;49.448;9.056;2022-09-09T13:03:26;20.80;99.90
34147;DHT22;20423;49.448;9.056;2022-09-09T13:05:53;20.60;99.90
34147;DHT22;20423;49.448;9.056;2022-09-09T13:08:19;20.40;99.90
34147;DHT22;20423;49.448;9.056;2022-09-09T13:11:04;20.20;99.90
34147;DHT22;20423;49.448;9.056;2022-09-09T13:13:38;19.80;99.90
34147;DHT22;20423;49.448;9.056;2022-09-09T13:16:06;19.50;99.90
34147;DHT22;20423;49.448;9.056;2022-09-09T13:18:40;19.30;99.90
34147;DHT22;20423;49.448;9.056;2022-09-09T13:21:07;19.30;99.90
34147;DHT22;20423;49.448;9.056;2022-09-09T13:23:34;19.10;99.90
34147;DHT22;20423;49.448;9.056;2022-09-09T13:26:04;19.10;99.90
34147;DHT22;20423;49.448;9.056;2022-09-09T13:28:32;19.00;99.90
34147;DHT22;20423;49.448;9.056;2022-09-09T13:31:18;19.20;99.90
34147;DHT22;20423;49.448;9.056;2022-09-09T13:33:45;19.20;99.90
34147;DHT22;20423;49.448;9.056;2022-09-09T13:36:12;19.20;99.90
34147;DHT22;20423;49.448;9.056;2022-09-09T13:41:22;18.60;99.90
34147;DHT22;20423;49.448;9.056;2022-09-09T13:43:49;18.30;99.90
34147;DHT22;20423;49.448;9.056;2022-09-09T13:46:27;18.20;99.90
34147;DHT22;20423;49.448;9.056;2022-09-09T13:49:18;18.30;99.90
34147;DHT22;20423;49.448;9.056;2022-09-09T13:52:02;18.30;99.90
34147;DHT22;20423;49.448;9.056;2022-09-09T13:54:28;18.20;99.90
34147;DHT22;20423;49.448;9.056;2022-09-09T13:56:53;18.00;99.90
34147;DHT22;20423;49.448;9.056;2022-09-09T13:59:20;17.80;99.90
34147;DHT22;20423;49.448;9.056;2022-09-09T14:01:47;17.60;99.90
34147;DHT22;20423;49.448;9.056;2022-09-09T14:04:14;17.40;99.90
34147;DHT22;20423;49.448;9.056;2022-09-09T14:06:41;17.00;99.90
34147;DHT22;20423;49.448;9.056;2022-09-09T14:09:11;16.70;99.90
34147;DHT22;20423;49.448;9.056;2022-09-09T14:11:37;16.50;99.90
34147;DHT22;20423;49.448;9.056;2022-09-09T14:14:03;16.30;99.90
34147;DHT22;20423;49.448;9.056;2022-09-09T14:16:30;16.10;99.90
34147;DHT22;20423;49.448;9.056;2022-09-09T14:18:55;15.90;99.90
34147;DHT22;20423;49.448;9.056;2022-09-09T14:21:25;15.60;99.90
34147;DHT22;20423;49.448;9.056;2022-09-09T14:23:52;15.30;99.90
34147;DHT22;20423;49.448;9.056;2022-09-09T14:26:19;15.10;99.90
34147;DHT22;20423;49.448;9.056;2022-09-09T14:28:47;14.70;99.90
34147;DHT22;20423;49.448;9.056;2022-09-09T14:31:13;14.20;99.90
34147;DHT22;20423;49.448;9.056;2022-09-09T14:33:39;14.00;99.90
34147;DHT22;20423;49.448;9.056;2022-09-09T14:36:05;13.90;99.90
34147;DHT22;20423;49.448;9.056;2022-09-09T14:38:36;14.00;99.90
34147;DHT22;20423;49.448;9.056;2022-09-09T14:41:25;14.30;99.90
34147;DHT22;20423;49.448;9.056;2022-09-09T14:43:51;14.50;99.90
34147;DHT22;20423;49.448;9.056;2022-09-09T14:46:19;14.80;99.90
34147;DHT22;20423;49.448;9.056;2022-09-09T14:48:45;15.10;99.90
34147;DHT22;20423;49.448;9.056;2022-09-09T14:51:32;15.80;99.90
34147;DHT22;20423;49.448;9.056;2022-09-09T14:53:59;16.40;99.90
34147;DHT22;20423;49.448;9.056;2022-09-09T14:56:27;16.90;99.90
34147;DHT22;20423;49.448;9.056;2022-09-09T14:58:54;17.10;99.90
34147;DHT22;20423;49.448;9.056;2022-09-09T15:01:24;17.10;99.90
34147;DHT22;20423;49.448;9.056;2022-09-09T15:03:57;17.00;99.90
34147;DHT22;20423;49.448;9.056;2022-09-09T15:06:24;16.80;99.90
34147;DHT22;20423;49.448;9.056;2022-09-09T15:08:52;16.80;99.90
34147;DHT22;20423;49.448;9.056;2022-09-09T15:11:18;16.80;99.90
34147;DHT22;20423;49.448;9.056;2022-09-09T15:13:46;16.70;99.90
34147;DHT22;20423;49.448;9.056;2022-09-09T15:16:21;16.70;99.90
34147;DHT22;20423;49.448;9.056;2022-09-09T15:18:50;16.60;99.90
34147;DHT22;20423;49.448;9.056;2022-09-09T15:21:19;16.50;99.90
34147;DHT22;20423;49.448;9.056;2022-09-09T15:23:45;16.30;99.90
34147;DHT22;20423;49.448;9.056;2022-09-09T15:26:11;16.10;99.90
34147;DHT22;20423;49.448;9.056;2022-09-09T15:28:39;16.00;99.90
34147;DHT22;20423;49.448;9.056;2022-09-09T15:31:23;15.90;99.90
34147;DHT22;20423;49.448;9.056;2022-09-09T15:33:54;15.80;99.90
34147;DHT22;20423;49.448;9.056;2022-09-09T15:36:33;15.70;99.90
34147;DHT22;20423;49.448;9.056;2022-09-09T15:39:00;15.70;99.90
34147;DHT22;20423;49.448;9.056;2022-09-09T15:41:27;15.70;99.90
34147;DHT22;20423;49.448;9.056;2022-09-09T15:43:55;15.70;99.90
34147;DHT22;20423;49.448;9.056;2022-09-09T15:48:55;15.60;99.90
34147;DHT22;20423;49.448;9.056;2022-09-09T15:51:22;15.60;99.90
34147;DHT22;20423;49.448;9.056;2022-09-09T15:53:52;15.70;99.90
34147;DHT22;20423;49.448;9.056;2022-09-09T15:56:19;15.70;99.90
34147;DHT22;20423;49.448;9.056;2022-09-09T15:58:44;15.70;99.90
34147;DHT22;20423;49.448;9.056;2022-09-09T16:01:11;15.80;99.90
34147;DHT22;20423;49.448;9.056;2022-09-09T16:03:40;15.70;99.90
34147;DHT22;20423;49.448;9.056;2022-09-09T16:06:08;15.70;99.90
34147;DHT22;20423;49.448;9.056;2022-09-09T16:08:39;15.70;99.90
34147;DHT22;20423;49.448;9.056;2022-09-09T16:13:36;15.70;99.90
34147;DHT22;20423;49.448;9.056;2022-09-09T16:16:03;15.60;99.90
34147;DHT22;20423;49.448;9.056;2022-09-09T16:18:41;15.50;99.90
34147;DHT22;20423;49.448;9.056;2022-09-09T16:21:08;15.60;99.90
34147;DHT22;20423;49.448;9.056;2022-09-09T16:23:36;15.60;99.90
34147;DHT22;20423;49.448;9.056;2022-09-09T16:26:02;15.50;99.90
34147;DHT22;20423;49.448;9.056;2022-09-09T16:28:28;15.40;99.90
34147;DHT22;20423;49.448;9.056;2022-09-09T16:30:54;15.20;99.90
34147;DHT22;20423;49.448;9.056;2022-09-09T16:33:19;15.10;99.90
34147;DHT22;20423;49.448;9.056;2022-09-09T16:35:45;15.00;99.90
34147;DHT22;20423;49.448;9.056;2022-09-09T16:38:11;14.90;99.90
34147;DHT22;20423;49.448;9.056;2022-09-09T16:40:37;14.80;99.90
34147;DHT22;20423;49.448;9.056;2022-09-09T16:43:04;14.60;99.90
34147;DHT22;20423;49.448;9.056;2022-09-09T16:45:31;14.50;99.90
34147;DHT22;20423;49.448;9.056;2022-09-09T16:47:57;14.60;99.90
34147;DHT22;20423;49.448;9.056;2022-09-09T16:50:23;14.60;99.90
34147;DHT22;20423;49.448;9.056;2022-09-09T16:52:49;14.70;99.90
34147;DHT22;20423;49.448;9.056;2022-09-09T16:55:14;14.70;99.90
34147;DHT22;20423;49.448;9.056;2022-09-09T16:57:40;14.60;99.90
34147;DHT22;20423;49.448;9.056;2022-09-09T17:00:07;14.40;99.90
34147;DHT22;20423;49.448;9.056;2022-09-09T17:02:33;14.30;99.90
34147;DHT22;20423;49.448;9.056;2022-09-09T17:04:59;14.10;99.90
34147;DHT22;20423;49.448;9.056;2022-09-09T17:07:25;14.00;99.90
34147;DHT22;20423;49.448;9.056;2022-09-09T17:09:51;13.80;99.90
34147;DHT22;20423;49.448;9.056;2022-09-09T17:12:19;13.70;99.90
34147;DHT22;20423;49.448;9.056;2022-09-09T17:14:46;13.60;99.90
34147;DHT22;20423;49.448;9.056;2022-09-09T17:17:12;13.60;99.90
34147;DHT22;20423;49.448;9.056;2022-09-09T17:19:38;13.40;99.90
34147;DHT22;20423;49.448;9.056;2022-09-09T17:22:04;13.40;99.90
34147;DHT22;20423;49.448;9.056;2022-09-09T17:24:29;13.20;99.90
34147;DHT22;20423;49.448;9.056;2022-09-09T17:26:55;13.20;99.90
34147;DHT22;20423;49.448;9.056;2022-09-09T17:29:21;13.20;99.90
34147;DHT22;20423;49.448;9.056;2022-09-09T17:31:47;13.20;99.90
34147;DHT22;20423;49.448;9.056;2022-09-09T17:34:13;13.20;99.90
34147;DHT22;20423;49.448;9.056;2022-09-09T17:36:39;13.10;99.90
34147;DHT22;20423;49.448;9.056;2022-09-09T17:39:06;13.10;99.90
34147;DHT22;20423;49.448;9.056;2022-09-09T17:41:34;13.20;99.90
34147;DHT22;20423;49.448;9.056;2022-09-09T17:44:00;13.10;99.90
34147;DHT22;20423;49.448;9.056;2022-09-09T17:46:41;13.10;99.90
34147;DHT22;20423;49.448;9.056;2022-09-09T17:49:10;13.10;99.90
34147;DHT22;20423;49.448;9.056;2022-09-09T17:51:37;13.10;99.90
34147;DHT22;20423;49.448;9.056;2022-09-09T17:54:13;13.10;99.90
34147;DHT22;20423;49.448;9.056;2022-09-09T17:56:39;13.20;99.90
34147;DHT22;20423;49.448;9.056;2022-09-09T17:59:07;13.20;99.90
34147;DHT22;20423;49.448;9.056;2022-09-09T18:01:36;13.20;99.90
34147;DHT22;20423;49.448;9.056;2022-09-09T18:04:05;13.30;99.90
34147;DHT22;20423;49.448;9.056;2022-09-09T18:06:34;13.30;99.90
34147;DHT22;20423;49.448;9.056;2022-09-09T18:09:03;13.30;99.90
34147;DHT22;20423;49.448;9.056;2022-09-09T18:11:34;13.20;99.90
34147;DHT22;20423;49.448;9.056;2022-09-09T18:14:04;13.10;99.90
34147;DHT22;20423;49.448;9.056;2022-09-09T18:16:31;13.00;99.90
34147;DHT22;20423;49.448;9.056;2022-09-09T18:19:01;12.90;99.90
34147;DHT22;20423;49.448;9.056;2022-09-09T18:21:30;12.90;99.90